ADDS METAR Data

Data at: 0507 UTC 20 Apr 2018

METAR for:KRKD (Rockland/Knox Cnty, ME, US)
Text:KRKD 200456Z AUTO 00000KT 10SM OVC049 03/00 A2973 RMK AO2 SLP069 T00330000 400720033
Temperature: 3.3°C ( 38°F)
Dewpoint: 0.0°C ( 32°F) [RH = 79%]
Pressure (altimeter):29.73 inches Hg (1006.9 mb) [Sea level pressure: 1006.9 mb]
Winds:calm
Visibility:10 or more sm (16+ km)
Ceiling:4900 feet AGL
Clouds: overcast cloud deck at 4900 feet AGL
QC Flag:automated observation with no human augmentation